sensor_id;sensor_type;location;lat;lon;timestamp;P1;durP1;ratioP1;P2;durP2;ratioP2
57313;SDS011;53202;50.976;18.216;2023-04-06T00:01:45;100.00;;;49.90;;
57313;SDS011;53202;50.976;18.216;2023-04-06T00:04:12;109.90;;;52.40;;
57313;SDS011;53202;50.976;18.216;2023-04-06T00:06:38;101.00;;;50.60;;
57313;SDS011;53202;50.976;18.216;2023-04-06T00:09:04;89.70;;;48.60;;
57313;SDS011;53202;50.976;18.216;2023-04-06T00:11:30;94.20;;;49.00;;
57313;SDS011;53202;50.976;18.216;2023-04-06T00:13:56;88.90;;;46.00;;
57313;SDS011;53202;50.976;18.216;2023-04-06T00:16:23;86.50;;;45.80;;
57313;SDS011;53202;50.976;18.216;2023-04-06T00:18:49;83.00;;;45.90;;
57313;SDS011;53202;50.976;18.216;2023-04-06T00:21:15;87.50;;;45.90;;
57313;SDS011;53202;50.976;18.216;2023-04-06T00:23:41;85.60;;;46.40;;
57313;SDS011;53202;50.976;18.216;2023-04-06T00:26:08;91.80;;;47.80;;
57313;SDS011;53202;50.976;18.216;2023-04-06T00:28:36;82.90;;;46.30;;
57313;SDS011;53202;50.976;18.216;2023-04-06T00:31:03;80.10;;;43.30;;
57313;SDS011;53202;50.976;18.216;2023-04-06T00:33:29;84.60;;;46.90;;
57313;SDS011;53202;50.976;18.216;2023-04-06T00:35:55;84.80;;;43.20;;
57313;SDS011;53202;50.976;18.216;2023-04-06T00:38:21;80.60;;;43.70;;
57313;SDS011;53202;50.976;18.216;2023-04-06T00:40:47;90.50;;;44.70;;
57313;SDS011;53202;50.976;18.216;2023-04-06T00:43:13;87.80;;;44.50;;
57313;SDS011;53202;50.976;18.216;2023-04-06T00:45:40;76.40;;;42.60;;
57313;SDS011;53202;50.976;18.216;2023-04-06T00:48:07;70.50;;;42.10;;
57313;SDS011;53202;50.976;18.216;2023-04-06T00:50:34;77.00;;;40.90;;
57313;SDS011;53202;50.976;18.216;2023-04-06T00:53:01;75.60;;;41.20;;
57313;SDS011;53202;50.976;18.216;2023-04-06T00:55:27;76.80;;;41.80;;
57313;SDS011;53202;50.976;18.216;2023-04-06T00:57:54;69.70;;;41.40;;
57313;SDS011;53202;50.976;18.216;2023-04-06T01:00:21;68.90;;;39.50;;
57313;SDS011;53202;50.976;18.216;2023-04-06T01:02:47;68.70;;;40.60;;
57313;SDS011;53202;50.976;18.216;2023-04-06T01:05:13;74.10;;;39.10;;
57313;SDS011;53202;50.976;18.216;2023-04-06T01:07:39;66.20;;;37.60;;
57313;SDS011;53202;50.976;18.216;2023-04-06T01:10:05;73.20;;;40.80;;
57313;SDS011;53202;50.976;18.216;2023-04-06T01:12:31;62.90;;;38.40;;
57313;SDS011;53202;50.976;18.216;2023-04-06T01:14:59;62.60;;;37.00;;
57313;SDS011;53202;50.976;18.216;2023-04-06T01:17:25;64.70;;;36.10;;
57313;SDS011;53202;50.976;18.216;2023-04-06T01:19:51;65.40;;;39.30;;
57313;SDS011;53202;50.976;18.216;2023-04-06T01:22:19;67.40;;;38.80;;
57313;SDS011;53202;50.976;18.216;2023-04-06T01:24:45;72.50;;;39.30;;
57313;SDS011;53202;50.976;18.216;2023-04-06T01:27:11;76.90;;;40.70;;
57313;SDS011;53202;50.976;18.216;2023-04-06T01:29:38;73.30;;;40.20;;
57313;SDS011;53202;50.976;18.216;2023-04-06T01:32:07;68.80;;;38.50;;
57313;SDS011;53202;50.976;18.216;2023-04-06T01:34:36;62.40;;;38.20;;
57313;SDS011;53202;50.976;18.216;2023-04-06T01:37:02;80.00;;;39.60;;
57313;SDS011;53202;50.976;18.216;2023-04-06T01:39:28;68.80;;;40.20;;
57313;SDS011;53202;50.976;18.216;2023-04-06T01:41:54;72.00;;;37.90;;
57313;SDS011;53202;50.976;18.216;2023-04-06T01:44:20;64.00;;;38.10;;
57313;SDS011;53202;50.976;18.216;2023-04-06T01:46:46;70.60;;;39.80;;
57313;SDS011;53202;50.976;18.216;2023-04-06T01:49:12;68.40;;;38.70;;
57313;SDS011;53202;50.976;18.216;2023-04-06T01:51:39;67.90;;;38.60;;
57313;SDS011;53202;50.976;18.216;2023-04-06T01:54:05;72.80;;;39.20;;
57313;SDS011;53202;50.976;18.216;2023-04-06T01:56:31;60.70;;;36.70;;
57313;SDS011;53202;50.976;18.216;2023-04-06T01:58:57;72.30;;;38.50;;
57313;SDS011;53202;50.976;18.216;2023-04-06T02:01:23;66.00;;;38.30;;
57313;SDS011;53202;50.976;18.216;2023-04-06T02:03:49;69.40;;;37.80;;
57313;SDS011;53202;50.976;18.216;2023-04-06T02:06:16;68.70;;;36.80;;
57313;SDS011;53202;50.976;18.216;2023-04-06T02:08:42;70.50;;;37.10;;
57313;SDS011;53202;50.976;18.216;2023-04-06T02:11:08;63.90;;;35.10;;
57313;SDS011;53202;50.976;18.216;2023-04-06T02:13:34;63.00;;;34.50;;
57313;SDS011;53202;50.976;18.216;2023-04-06T02:16:00;61.60;;;35.00;;
57313;SDS011;53202;50.976;18.216;2023-04-06T02:18:29;69.30;;;35.10;;
57313;SDS011;53202;50.976;18.216;2023-04-06T02:20:56;66.20;;;34.30;;
57313;SDS011;53202;50.976;18.216;2023-04-06T02:23:22;172.00;;;65.20;;
57313;SDS011;53202;50.976;18.216;2023-04-06T02:25:48;355.20;;;137.50;;
57313;SDS011;53202;50.976;18.216;2023-04-06T02:28:14;336.70;;;134.60;;
57313;SDS011;53202;50.976;18.216;2023-04-06T02:30:40;384.60;;;150.50;;
57313;SDS011;53202;50.976;18.216;2023-04-06T02:33:06;377.30;;;142.50;;
57313;SDS011;53202;50.976;18.216;2023-04-06T02:35:32;309.80;;;120.10;;
57313;SDS011;53202;50.976;18.216;2023-04-06T02:37:58;321.40;;;124.30;;
57313;SDS011;53202;50.976;18.216;2023-04-06T02:40:24;176.10;;;73.50;;
57313;SDS011;53202;50.976;18.216;2023-04-06T02:42:50;133.40;;;57.10;;
57313;SDS011;53202;50.976;18.216;2023-04-06T02:45:17;123.30;;;53.80;;
57313;SDS011;53202;50.976;18.216;2023-04-06T02:47:43;83.80;;;43.30;;
57313;SDS011;53202;50.976;18.216;2023-04-06T02:50:10;60.40;;;35.40;;
57313;SDS011;53202;50.976;18.216;2023-04-06T02:52:38;65.30;;;37.50;;
57313;SDS011;53202;50.976;18.216;2023-04-06T02:55:04;64.50;;;36.70;;
57313;SDS011;53202;50.976;18.216;2023-04-06T02:57:33;64.80;;;36.40;;
57313;SDS011;53202;50.976;18.216;2023-04-06T02:59:59;66.20;;;37.50;;
57313;SDS011;53202;50.976;18.216;2023-04-06T03:02:25;70.80;;;39.40;;
57313;SDS011;53202;50.976;18.216;2023-04-06T03:04:51;71.70;;;38.10;;
57313;SDS011;53202;50.976;18.216;2023-04-06T03:07:17;71.50;;;38.30;;
57313;SDS011;53202;50.976;18.216;2023-04-06T03:09:43;66.70;;;37.10;;
57313;SDS011;53202;50.976;18.216;2023-04-06T03:12:09;69.80;;;37.40;;
57313;SDS011;53202;50.976;18.216;2023-04-06T03:14:35;62.00;;;35.30;;
57313;SDS011;53202;50.976;18.216;2023-04-06T03:17:01;74.20;;;40.00;;
57313;SDS011;53202;50.976;18.216;2023-04-06T03:19:27;66.80;;;36.60;;
57313;SDS011;53202;50.976;18.216;2023-04-06T03:21:53;62.40;;;37.70;;
57313;SDS011;53202;50.976;18.216;2023-04-06T03:24:20;68.20;;;37.80;;
57313;SDS011;53202;50.976;18.216;2023-04-06T03:26:46;63.60;;;37.90;;
57313;SDS011;53202;50.976;18.216;2023-04-06T03:29:12;68.30;;;36.30;;
57313;SDS011;53202;50.976;18.216;2023-04-06T03:31:38;81.50;;;44.00;;
57313;SDS011;53202;50.976;18.216;2023-04-06T03:34:04;81.90;;;46.00;;
57313;SDS011;53202;50.976;18.216;2023-04-06T03:36:30;77.70;;;43.90;;
57313;SDS011;53202;50.976;18.216;2023-04-06T03:38:56;72.40;;;41.80;;
57313;SDS011;53202;50.976;18.216;2023-04-06T03:41:23;73.10;;;40.50;;
57313;SDS011;53202;50.976;18.216;2023-04-06T03:43:49;71.20;;;40.10;;
57313;SDS011;53202;50.976;18.216;2023-04-06T03:46:16;69.10;;;41.20;;
57313;SDS011;53202;50.976;18.216;2023-04-06T03:48:42;80.40;;;41.40;;
57313;SDS011;53202;50.976;18.216;2023-04-06T03:51:08;79.20;;;46.50;;
57313;SDS011;53202;50.976;18.216;2023-04-06T03:53:34;79.60;;;44.80;;
57313;SDS011;53202;50.976;18.216;2023-04-06T03:56:02;79.30;;;45.70;;
57313;SDS011;53202;50.976;18.216;2023-04-06T03:58:29;74.80;;;44.50;;
57313;SDS011;53202;50.976;18.216;2023-04-06T04:00:56;74.30;;;42.90;;
57313;SDS011;53202;50.976;18.216;2023-04-06T04:03:22;83.90;;;44.80;;
57313;SDS011;53202;50.976;18.216;2023-04-06T04:05:49;75.70;;;43.80;;
57313;SDS011;53202;50.976;18.216;2023-04-06T04:08:15;75.60;;;43.50;;
57313;SDS011;53202;50.976;18.216;2023-04-06T04:10:42;78.40;;;44.00;;
57313;SDS011;53202;50.976;18.216;2023-04-06T04:13:07;79.90;;;44.50;;
57313;SDS011;53202;50.976;18.216;2023-04-06T04:15:34;76.30;;;44.70;;
57313;SDS011;53202;50.976;18.216;2023-04-06T04:18:00;74.70;;;44.50;;
57313;SDS011;53202;50.976;18.216;2023-04-06T04:20:26;82.10;;;45.60;;
57313;SDS011;53202;50.976;18.216;2023-04-06T04:22:53;76.10;;;44.20;;
57313;SDS011;53202;50.976;18.216;2023-04-06T04:25:19;84.80;;;46.80;;
57313;SDS011;53202;50.976;18.216;2023-04-06T04:27:45;81.50;;;47.60;;
57313;SDS011;53202;50.976;18.216;2023-04-06T04:30:11;87.40;;;48.70;;
57313;SDS011;53202;50.976;18.216;2023-04-06T04:32:37;89.80;;;46.90;;
57313;SDS011;53202;50.976;18.216;2023-04-06T04:35:03;79.00;;;45.70;;
57313;SDS011;53202;50.976;18.216;2023-04-06T04:37:30;82.10;;;46.80;;
57313;SDS011;53202;50.976;18.216;2023-04-06T04:39:56;82.40;;;48.40;;
57313;SDS011;53202;50.976;18.216;2023-04-06T04:42:22;84.80;;;47.80;;
57313;SDS011;53202;50.976;18.216;2023-04-06T04:44:48;79.20;;;48.60;;
57313;SDS011;53202;50.976;18.216;2023-04-06T04:47:14;93.40;;;50.10;;
57313;SDS011;53202;50.976;18.216;2023-04-06T04:49:41;92.30;;;48.30;;
57313;SDS011;53202;50.976;18.216;2023-04-06T04:52:07;94.30;;;49.90;;
57313;SDS011;53202;50.976;18.216;2023-04-06T04:54:33;89.80;;;49.30;;
57313;SDS011;53202;50.976;18.216;2023-04-06T04:56:59;83.20;;;49.10;;
57313;SDS011;53202;50.976;18.216;2023-04-06T04:59:25;94.10;;;53.50;;
57313;SDS011;53202;50.976;18.216;2023-04-06T05:01:51;114.00;;;57.30;;
57313;SDS011;53202;50.976;18.216;2023-04-06T05:04:17;108.70;;;55.40;;
57313;SDS011;53202;50.976;18.216;2023-04-06T05:06:44;96.00;;;55.40;;
57313;SDS011;53202;50.976;18.216;2023-04-06T05:09:10;95.90;;;55.00;;
57313;SDS011;53202;50.976;18.216;2023-04-06T05:11:36;98.20;;;55.10;;
57313;SDS011;53202;50.976;18.216;2023-04-06T05:14:02;108.80;;;59.10;;
57313;SDS011;53202;50.976;18.216;2023-04-06T05:16:28;120.70;;;61.80;;
57313;SDS011;53202;50.976;18.216;2023-04-06T05:18:54;121.10;;;60.80;;
57313;SDS011;53202;50.976;18.216;2023-04-06T05:21:22;109.60;;;59.30;;
57313;SDS011;53202;50.976;18.216;2023-04-06T05:23:48;118.30;;;59.20;;
57313;SDS011;53202;50.976;18.216;2023-04-06T05:26:14;90.80;;;51.70;;
57313;SDS011;53202;50.976;18.216;2023-04-06T05:28:40;84.70;;;49.50;;
57313;SDS011;53202;50.976;18.216;2023-04-06T05:31:07;77.60;;;46.10;;
57313;SDS011;53202;50.976;18.216;2023-04-06T05:33:33;75.40;;;44.60;;
57313;SDS011;53202;50.976;18.216;2023-04-06T05:35:59;64.00;;;41.50;;
57313;SDS011;53202;50.976;18.216;2023-04-06T05:38:26;68.00;;;41.60;;
57313;SDS011;53202;50.976;18.216;2023-04-06T05:40:52;77.20;;;43.70;;
57313;SDS011;53202;50.976;18.216;2023-04-06T05:43:18;73.60;;;42.60;;
57313;SDS011;53202;50.976;18.216;2023-04-06T05:45:44;76.30;;;39.40;;
57313;SDS011;53202;50.976;18.216;2023-04-06T05:48:11;73.70;;;39.50;;
57313;SDS011;53202;50.976;18.216;2023-04-06T05:50:37;69.70;;;39.20;;
57313;SDS011;53202;50.976;18.216;2023-04-06T05:53:03;67.40;;;39.80;;
57313;SDS011;53202;50.976;18.216;2023-04-06T05:55:30;70.70;;;39.20;;
57313;SDS011;53202;50.976;18.216;2023-04-06T05:57:56;65.40;;;39.70;;
57313;SDS011;53202;50.976;18.216;2023-04-06T06:00:22;67.80;;;40.00;;
57313;SDS011;53202;50.976;18.216;2023-04-06T06:02:48;65.20;;;38.30;;
57313;SDS011;53202;50.976;18.216;2023-04-06T06:05:14;66.00;;;37.70;;
57313;SDS011;53202;50.976;18.216;2023-04-06T06:07:40;63.50;;;38.10;;
57313;SDS011;53202;50.976;18.216;2023-04-06T06:10:06;69.10;;;37.90;;
57313;SDS011;53202;50.976;18.216;2023-04-06T06:12:33;64.20;;;37.80;;
57313;SDS011;53202;50.976;18.216;2023-04-06T06:14:59;66.60;;;38.30;;
57313;SDS011;53202;50.976;18.216;2023-04-06T06:17:25;71.00;;;40.00;;
57313;SDS011;53202;50.976;18.216;2023-04-06T06:19:52;67.50;;;39.00;;
57313;SDS011;53202;50.976;18.216;2023-04-06T06:22:18;75.00;;;41.70;;
57313;SDS011;53202;50.976;18.216;2023-04-06T06:24:44;79.10;;;43.10;;
57313;SDS011;53202;50.976;18.216;2023-04-06T06:27:10;74.70;;;41.70;;
57313;SDS011;53202;50.976;18.216;2023-04-06T06:29:36;70.80;;;38.10;;
57313;SDS011;53202;50.976;18.216;2023-04-06T06:32:02;62.90;;;37.60;;
57313;SDS011;53202;50.976;18.216;2023-04-06T06:34:29;63.00;;;36.00;;
57313;SDS011;53202;50.976;18.216;2023-04-06T06:36:55;69.00;;;39.50;;
57313;SDS011;53202;50.976;18.216;2023-04-06T06:39:21;73.00;;;37.90;;
57313;SDS011;53202;50.976;18.216;2023-04-06T06:41:49;72.00;;;39.70;;
57313;SDS011;53202;50.976;18.216;2023-04-06T06:44:15;66.40;;;35.70;;
57313;SDS011;53202;50.976;18.216;2023-04-06T06:46:42;66.40;;;34.60;;
57313;SDS011;53202;50.976;18.216;2023-04-06T06:49:08;53.10;;;31.50;;
57313;SDS011;53202;50.976;18.216;2023-04-06T06:51:37;56.40;;;31.40;;
57313;SDS011;53202;50.976;18.216;2023-04-06T06:54:03;55.00;;;29.10;;
57313;SDS011;53202;50.976;18.216;2023-04-06T06:56:29;55.60;;;29.70;;
57313;SDS011;53202;50.976;18.216;2023-04-06T06:58:55;51.10;;;29.60;;
57313;SDS011;53202;50.976;18.216;2023-04-06T07:01:21;54.00;;;27.50;;
57313;SDS011;53202;50.976;18.216;2023-04-06T07:03:47;47.50;;;27.00;;
57313;SDS011;53202;50.976;18.216;2023-04-06T07:06:13;60.20;;;30.20;;
57313;SDS011;53202;50.976;18.216;2023-04-06T07:08:40;57.10;;;32.40;;
57313;SDS011;53202;50.976;18.216;2023-04-06T07:11:06;58.70;;;32.80;;
57313;SDS011;53202;50.976;18.216;2023-04-06T07:13:32;53.20;;;31.30;;
57313;SDS011;53202;50.976;18.216;2023-04-06T07:15:58;51.20;;;29.00;;
57313;SDS011;53202;50.976;18.216;2023-04-06T07:18:24;48.80;;;27.30;;
57313;SDS011;53202;50.976;18.216;2023-04-06T07:20:50;45.20;;;26.10;;
57313;SDS011;53202;50.976;18.216;2023-04-06T07:23:16;51.10;;;29.80;;
57313;SDS011;53202;50.976;18.216;2023-04-06T07:25:42;50.10;;;29.80;;
57313;SDS011;53202;50.976;18.216;2023-04-06T07:28:08;45.40;;;27.40;;
57313;SDS011;53202;50.976;18.216;2023-04-06T07:30:34;47.20;;;27.90;;
57313;SDS011;53202;50.976;18.216;2023-04-06T07:33:02;56.20;;;32.70;;
57313;SDS011;53202;50.976;18.216;2023-04-06T07:35:28;57.00;;;33.80;;
57313;SDS011;53202;50.976;18.216;2023-04-06T07:37:55;68.10;;;36.70;;
57313;SDS011;53202;50.976;18.216;2023-04-06T07:40:21;63.70;;;36.30;;
57313;SDS011;53202;50.976;18.216;2023-04-06T07:42:47;57.50;;;35.10;;
57313;SDS011;53202;50.976;18.216;2023-04-06T07:45:13;56.00;;;33.80;;
57313;SDS011;53202;50.976;18.216;2023-04-06T07:47:41;40.80;;;24.70;;
57313;SDS011;53202;50.976;18.216;2023-04-06T07:50:07;52.20;;;27.00;;
57313;SDS011;53202;50.976;18.216;2023-04-06T07:52:34;39.00;;;23.60;;
57313;SDS011;53202;50.976;18.216;2023-04-06T07:55:00;52.50;;;26.10;;
57313;SDS011;53202;50.976;18.216;2023-04-06T07:57:26;32.10;;;19.10;;
57313;SDS011;53202;50.976;18.216;2023-04-06T07:59:52;36.50;;;22.20;;
57313;SDS011;53202;50.976;18.216;2023-04-06T08:02:18;34.30;;;20.40;;
57313;SDS011;53202;50.976;18.216;2023-04-06T08:04:44;39.40;;;20.70;;
57313;SDS011;53202;50.976;18.216;2023-04-06T08:07:10;34.30;;;20.00;;
57313;SDS011;53202;50.976;18.216;2023-04-06T08:09:36;32.70;;;19.70;;
57313;SDS011;53202;50.976;18.216;2023-04-06T08:12:03;34.80;;;20.00;;
57313;SDS011;53202;50.976;18.216;2023-04-06T08:14:29;26.80;;;16.90;;
57313;SDS011;53202;50.976;18.216;2023-04-06T08:16:55;32.00;;;18.50;;
57313;SDS011;53202;50.976;18.216;2023-04-06T08:19:21;33.10;;;18.60;;
57313;SDS011;53202;50.976;18.216;2023-04-06T08:21:48;25.10;;;15.20;;
57313;SDS011;53202;50.976;18.216;2023-04-06T08:24:14;18.60;;;13.00;;
57313;SDS011;53202;50.976;18.216;2023-04-06T08:26:40;21.80;;;14.50;;
57313;SDS011;53202;50.976;18.216;2023-04-06T08:29:06;21.20;;;12.50;;
57313;SDS011;53202;50.976;18.216;2023-04-06T08:31:33;20.70;;;13.10;;
57313;SDS011;53202;50.976;18.216;2023-04-06T08:34:00;20.70;;;12.00;;
57313;SDS011;53202;50.976;18.216;2023-04-06T08:36:27;24.70;;;11.40;;
57313;SDS011;53202;50.976;18.216;2023-04-06T08:38:53;16.90;;;10.10;;
57313;SDS011;53202;50.976;18.216;2023-04-06T08:41:20;20.10;;;11.70;;
57313;SDS011;53202;50.976;18.216;2023-04-06T08:43:46;24.30;;;13.70;;
57313;SDS011;53202;50.976;18.216;2023-04-06T08:46:13;23.60;;;13.80;;
57313;SDS011;53202;50.976;18.216;2023-04-06T08:48:40;25.80;;;13.90;;
57313;SDS011;53202;50.976;18.216;2023-04-06T08:51:08;27.80;;;13.20;;
57313;SDS011;53202;50.976;18.216;2023-04-06T08:53:35;15.80;;;10.70;;
57313;SDS011;53202;50.976;18.216;2023-04-06T08:56:02;17.70;;;9.10;;
57313;SDS011;53202;50.976;18.216;2023-04-06T08:58:32;12.20;;;9.00;;
57313;SDS011;53202;50.976;18.216;2023-04-06T09:01:00;17.20;;;9.70;;
57313;SDS011;53202;50.976;18.216;2023-04-06T09:03:28;22.50;;;10.70;;
57313;SDS011;53202;50.976;18.216;2023-04-06T09:05:55;16.90;;;10.80;;
57313;SDS011;53202;50.976;18.216;2023-04-06T09:08:21;16.50;;;10.20;;
57313;SDS011;53202;50.976;18.216;2023-04-06T09:10:48;18.00;;;10.90;;
57313;SDS011;53202;50.976;18.216;2023-04-06T09:13:15;17.50;;;11.20;;
57313;SDS011;53202;50.976;18.216;2023-04-06T09:15:41;18.20;;;11.40;;
57313;SDS011;53202;50.976;18.216;2023-04-06T09:18:07;24.20;;;13.50;;
57313;SDS011;53202;50.976;18.216;2023-04-06T09:20:33;24.20;;;12.80;;
57313;SDS011;53202;50.976;18.216;2023-04-06T09:23:00;14.90;;;10.40;;
57313;SDS011;53202;50.976;18.216;2023-04-06T09:25:26;15.60;;;9.20;;
57313;SDS011;53202;50.976;18.216;2023-04-06T09:28:01;15.70;;;9.90;;
57313;SDS011;53202;50.976;18.216;2023-04-06T09:30:28;15.20;;;9.80;;
57313;SDS011;53202;50.976;18.216;2023-04-06T09:32:55;13.60;;;9.80;;
57313;SDS011;53202;50.976;18.216;2023-04-06T09:35:22;15.60;;;9.40;;
57313;SDS011;53202;50.976;18.216;2023-04-06T09:37:49;14.30;;;8.50;;
57313;SDS011;53202;50.976;18.216;2023-04-06T09:40:17;13.20;;;8.60;;
57313;SDS011;53202;50.976;18.216;2023-04-06T09:42:45;13.80;;;8.70;;
57313;SDS011;53202;50.976;18.216;2023-04-06T09:45:13;12.60;;;7.70;;
57313;SDS011;53202;50.976;18.216;2023-04-06T09:47:39;23.30;;;10.30;;
57313;SDS011;53202;50.976;18.216;2023-04-06T09:50:10;12.90;;;7.90;;
57313;SDS011;53202;50.976;18.216;2023-04-06T09:52:38;11.30;;;8.10;;
57313;SDS011;53202;50.976;18.216;2023-04-06T09:55:07;9.10;;;6.50;;
57313;SDS011;53202;50.976;18.216;2023-04-06T09:57:55;9.50;;;6.50;;
57313;SDS011;53202;50.976;18.216;2023-04-06T10:00:23;10.80;;;7.10;;
57313;SDS011;53202;50.976;18.216;2023-04-06T10:05:51;11.90;;;7.70;;
57313;SDS011;53202;50.976;18.216;2023-04-06T10:08:20;10.00;;;7.90;;
57313;SDS011;53202;50.976;18.216;2023-04-06T10:10:48;13.70;;;7.40;;
57313;SDS011;53202;50.976;18.216;2023-04-06T10:13:14;11.10;;;7.20;;
57313;SDS011;53202;50.976;18.216;2023-04-06T10:15:41;10.10;;;7.30;;
57313;SDS011;53202;50.976;18.216;2023-04-06T10:18:07;11.30;;;7.60;;
57313;SDS011;53202;50.976;18.216;2023-04-06T10:23:33;14.80;;;7.60;;
57313;SDS011;53202;50.976;18.216;2023-04-06T10:26:02;13.40;;;6.90;;
57313;SDS011;53202;50.976;18.216;2023-04-06T10:28:33;13.50;;;7.80;;
57313;SDS011;53202;50.976;18.216;2023-04-06T10:31:02;10.80;;;7.40;;
57313;SDS011;53202;50.976;18.216;2023-04-06T10:33:31;9.90;;;7.00;;
57313;SDS011;53202;50.976;18.216;2023-04-06T10:35:57;13.30;;;7.10;;
57313;SDS011;53202;50.976;18.216;2023-04-06T10:41:05;11.20;;;7.20;;
57313;SDS011;53202;50.976;18.216;2023-04-06T10:43:33;10.50;;;7.40;;
57313;SDS011;53202;50.976;18.216;2023-04-06T10:46:02;10.60;;;6.80;;
57313;SDS011;53202;50.976;18.216;2023-04-06T10:48:44;9.90;;;6.40;;
57313;SDS011;53202;50.976;18.216;2023-04-06T10:51:12;10.70;;;7.20;;
57313;SDS011;53202;50.976;18.216;2023-04-06T10:53:41;13.40;;;8.20;;
57313;SDS011;53202;50.976;18.216;2023-04-06T10:56:10;10.40;;;7.00;;
57313;SDS011;53202;50.976;18.216;2023-04-06T10:58:37;17.50;;;7.70;;
57313;SDS011;53202;50.976;18.216;2023-04-06T11:01:04;22.70;;;11.90;;
57313;SDS011;53202;50.976;18.216;2023-04-06T11:03:30;22.50;;;12.60;;
57313;SDS011;53202;50.976;18.216;2023-04-06T11:05:57;24.70;;;12.90;;
57313;SDS011;53202;50.976;18.216;2023-04-06T11:08:28;13.90;;;8.60;;
57313;SDS011;53202;50.976;18.216;2023-04-06T11:13:45;18.90;;;10.00;;
57313;SDS011;53202;50.976;18.216;2023-04-06T11:16:19;13.50;;;8.30;;
57313;SDS011;53202;50.976;18.216;2023-04-06T11:18:48;18.00;;;11.50;;
57313;SDS011;53202;50.976;18.216;2023-04-06T11:21:16;17.80;;;9.60;;
57313;SDS011;53202;50.976;18.216;2023-04-06T11:23:42;13.80;;;8.80;;
57313;SDS011;53202;50.976;18.216;2023-04-06T11:26:12;10.30;;;7.10;;
57313;SDS011;53202;50.976;18.216;2023-04-06T11:28:42;10.70;;;7.40;;
57313;SDS011;53202;50.976;18.216;2023-04-06T11:31:09;13.50;;;7.90;;
57313;SDS011;53202;50.976;18.216;2023-04-06T11:33:37;11.60;;;7.00;;
57313;SDS011;53202;50.976;18.216;2023-04-06T11:36:06;12.90;;;6.70;;
57313;SDS011;53202;50.976;18.216;2023-04-06T11:38:33;11.90;;;6.90;;
57313;SDS011;53202;50.976;18.216;2023-04-06T11:41:00;10.10;;;6.20;;
57313;SDS011;53202;50.976;18.216;2023-04-06T11:43:28;11.00;;;5.70;;
57313;SDS011;53202;50.976;18.216;2023-04-06T11:46:03;13.20;;;6.70;;
57313;SDS011;53202;50.976;18.216;2023-04-06T11:48:30;11.90;;;6.80;;
57313;SDS011;53202;50.976;18.216;2023-04-06T11:50:57;13.30;;;8.40;;
57313;SDS011;53202;50.976;18.216;2023-04-06T11:53:27;11.80;;;7.50;;
57313;SDS011;53202;50.976;18.216;2023-04-06T11:55:54;21.80;;;12.80;;
57313;SDS011;53202;50.976;18.216;2023-04-06T11:58:20;17.10;;;9.40;;
57313;SDS011;53202;50.976;18.216;2023-04-06T12:00:46;14.20;;;8.10;;
57313;SDS011;53202;50.976;18.216;2023-04-06T12:03:13;11.40;;;7.90;;
57313;SDS011;53202;50.976;18.216;2023-04-06T12:05:39;31.80;;;18.10;;
57313;SDS011;53202;50.976;18.216;2023-04-06T12:08:06;14.50;;;8.50;;
57313;SDS011;53202;50.976;18.216;2023-04-06T12:10:32;13.70;;;7.50;;
57313;SDS011;53202;50.976;18.216;2023-04-06T12:12:58;10.90;;;6.80;;
57313;SDS011;53202;50.976;18.216;2023-04-06T12:15:24;12.70;;;7.50;;
57313;SDS011;53202;50.976;18.216;2023-04-06T12:17:51;21.60;;;8.10;;
57313;SDS011;53202;50.976;18.216;2023-04-06T12:20:17;14.20;;;8.00;;
57313;SDS011;53202;50.976;18.216;2023-04-06T12:22:43;12.70;;;7.80;;
57313;SDS011;53202;50.976;18.216;2023-04-06T12:25:09;14.10;;;7.90;;
57313;SDS011;53202;50.976;18.216;2023-04-06T12:27:35;13.80;;;8.10;;
57313;SDS011;53202;50.976;18.216;2023-04-06T12:30:01;10.60;;;7.80;;
57313;SDS011;53202;50.976;18.216;2023-04-06T12:32:28;13.00;;;8.50;;
57313;SDS011;53202;50.976;18.216;2023-04-06T12:34:54;13.50;;;7.90;;
57313;SDS011;53202;50.976;18.216;2023-04-06T12:37:20;15.00;;;7.90;;
57313;SDS011;53202;50.976;18.216;2023-04-06T12:39:46;18.00;;;8.50;;
57313;SDS011;53202;50.976;18.216;2023-04-06T12:42:13;12.50;;;7.40;;
57313;SDS011;53202;50.976;18.216;2023-04-06T12:44:39;15.80;;;9.40;;
57313;SDS011;53202;50.976;18.216;2023-04-06T12:47:05;13.20;;;8.20;;
57313;SDS011;53202;50.976;18.216;2023-04-06T12:49:32;14.00;;;8.90;;
57313;SDS011;53202;50.976;18.216;2023-04-06T12:51:58;17.30;;;9.80;;
57313;SDS011;53202;50.976;18.216;2023-04-06T12:54:24;12.00;;;9.20;;
57313;SDS011;53202;50.976;18.216;2023-04-06T12:56:52;13.80;;;8.30;;
57313;SDS011;53202;50.976;18.216;2023-04-06T12:59:18;26.90;;;15.50;;
57313;SDS011;53202;50.976;18.216;2023-04-06T13:01:46;14.60;;;8.30;;
57313;SDS011;53202;50.976;18.216;2023-04-06T13:04:13;20.80;;;9.20;;
57313;SDS011;53202;50.976;18.216;2023-04-06T13:06:39;17.00;;;8.50;;
57313;SDS011;53202;50.976;18.216;2023-04-06T13:09:05;15.70;;;9.60;;
57313;SDS011;53202;50.976;18.216;2023-04-06T13:11:33;12.20;;;8.00;;
57313;SDS011;53202;50.976;18.216;2023-04-06T13:13:59;14.30;;;7.80;;
57313;SDS011;53202;50.976;18.216;2023-04-06T13:16:25;13.50;;;8.20;;
57313;SDS011;53202;50.976;18.216;2023-04-06T13:18:51;15.90;;;9.30;;
57313;SDS011;53202;50.976;18.216;2023-04-06T13:21:17;10.60;;;8.00;;
57313;SDS011;53202;50.976;18.216;2023-04-06T13:23:46;15.20;;;8.40;;
57313;SDS011;53202;50.976;18.216;2023-04-06T13:26:12;11.60;;;7.30;;
57313;SDS011;53202;50.976;18.216;2023-04-06T13:28:40;12.70;;;8.70;;
57313;SDS011;53202;50.976;18.216;2023-04-06T13:31:06;18.00;;;9.40;;
57313;SDS011;53202;50.976;18.216;2023-04-06T13:33:35;18.10;;;9.60;;
57313;SDS011;53202;50.976;18.216;2023-04-06T13:36:01;17.10;;;9.90;;
57313;SDS011;53202;50.976;18.216;2023-04-06T13:38:27;17.10;;;9.40;;
57313;SDS011;53202;50.976;18.216;2023-04-06T13:40:55;16.00;;;8.90;;
57313;SDS011;53202;50.976;18.216;2023-04-06T13:43:21;12.00;;;9.10;;
57313;SDS011;53202;50.976;18.216;2023-04-06T13:45:51;17.10;;;9.70;;
57313;SDS011;53202;50.976;18.216;2023-04-06T13:48:19;14.90;;;9.30;;
57313;SDS011;53202;50.976;18.216;2023-04-06T13:50:45;15.60;;;10.60;;
57313;SDS011;53202;50.976;18.216;2023-04-06T13:53:11;19.10;;;10.70;;
57313;SDS011;53202;50.976;18.216;2023-04-06T13:55:38;15.90;;;10.70;;
57313;SDS011;53202;50.976;18.216;2023-04-06T13:58:04;17.00;;;10.30;;
57313;SDS011;53202;50.976;18.216;2023-04-06T14:00:30;16.90;;;10.50;;
57313;SDS011;53202;50.976;18.216;2023-04-06T14:02:56;13.10;;;9.70;;
57313;SDS011;53202;50.976;18.216;2023-04-06T14:05:22;15.60;;;10.30;;
57313;SDS011;53202;50.976;18.216;2023-04-06T14:07:49;19.40;;;10.70;;
57313;SDS011;53202;50.976;18.216;2023-04-06T14:10:16;21.40;;;10.60;;
57313;SDS011;53202;50.976;18.216;2023-04-06T14:12:42;15.50;;;11.00;;
57313;SDS011;53202;50.976;18.216;2023-04-06T14:15:10;13.80;;;10.00;;
57313;SDS011;53202;50.976;18.216;2023-04-06T14:17:37;18.40;;;11.10;;
57313;SDS011;53202;50.976;18.216;2023-04-06T14:20:06;18.60;;;10.60;;